Time;durP1;ratioP1;P1;durP2;ratioP2;P2;SDS_P1;SDS_P2;PMS_P1;PMS_P2;Temp;Humidity;BMP_temperature;BMP_pressure;BME280_temperature;BME280_humidity;BME280_pressure;Samples;Min_cycle;Max_cycle;Signal;HPM_P1;HPM_P2
2021/01/25 00:02:22;;;;;;;23.42;12.82;;;;;;;1.32;99.05;99271.84;4990511;28;20117;-81
2021/01/25 00:04:50;;;;;;;22.98;13.13;;;;;;;1.41;99.08;99278.41;5002596;28;20050;-81
2021/01/25 00:07:18;;;;;;;19.67;11.13;;;;;;;1.57;98.12;99273.38;4995456;28;20046;-80
2021/01/25 00:09:45;;;;;;;20.05;10.15;;;;;;;1.38;98.39;99274.16;5020634;28;20113;-81
2021/01/25 00:12:13;;;;;;;20.13;11.50;;;;;;;1.47;98.82;99276.38;5008219;28;20089;-80
2021/01/25 00:14:40;;;;;;;20.27;10.95;;;;;;;1.43;98.34;99272.22;5009464;28;20053;-81
2021/01/25 00:17:08;;;;;;;20.23;10.55;;;;;;;1.39;97.72;99269.81;5002121;28;20098;-81
2021/01/25 00:19:36;;;;;;;20.00;10.60;;;;;;;1.39;97.96;99280.19;5003695;28;20671;-82
2021/01/25 00:22:03;;;;;;;17.98;10.25;;;;;;;1.52;98.63;99276.16;4992526;28;20066;-81
2021/01/25 00:24:30;;;;;;;19.85;11.07;;;;;;;1.53;98.09;99275.25;4972049;28;20496;-82
2021/01/25 00:26:58;;;;;;;20.30;11.50;;;;;;;1.51;97.52;99280.50;4990274;28;20272;-82
2021/01/25 00:29:26;;;;;;;19.02;10.45;;;;;;;1.51;97.65;99282.25;4996650;28;20046;-80
2021/01/25 00:31:54;;;;;;;20.42;12.00;;;;;;;1.66;97.82;99283.34;4995589;28;20121;-80
2021/01/25 00:34:22;;;;;;;25.20;11.63;;;;;;;1.50;97.89;99284.03;5002093;28;20042;-81
2021/01/25 00:36:49;;;;;;;21.23;11.00;;;;;;;1.50;98.07;99283.19;4990601;28;20050;-81
2021/01/25 00:39:17;;;;;;;18.42;10.13;;;;;;;1.25;97.90;99280.78;4997694;28;20050;-79
2021/01/25 00:41:45;;;;;;;23.13;11.90;;;;;;;1.35;97.78;99283.81;4998964;28;20187;-82
2021/01/25 00:44:12;;;;;;;23.23;11.52;;;;;;;1.42;98.52;99282.66;5010864;28;20158;-80
2021/01/25 00:46:40;;;;;;;21.42;11.38;;;;;;;1.37;98.95;99276.84;5010821;28;20110;-80
2021/01/25 00:49:08;;;;;;;19.88;10.82;;;;;;;1.47;98.35;99278.13;5004429;28;20067;-80
2021/01/25 00:51:36;;;;;;;18.95;9.93;;;;;;;1.51;97.98;99277.06;5003145;28;20054;-81
2021/01/25 00:54:04;;;;;;;20.67;10.57;;;;;;;1.21;98.51;99279.22;5004833;28;20148;-81
2021/01/25 00:56:31;;;;;;;20.45;9.90;;;;;;;1.18;99.02;99282.81;4998276;28;20038;-79
2021/01/25 00:58:59;;;;;;;21.02;11.05;;;;;;;1.38;98.83;99287.13;5014589;28;20054;-81
2021/01/25 01:01:27;;;;;;;20.10;10.60;;;;;;;1.53;98.46;99293.41;5012873;28;20126;-80
2021/01/25 01:03:55;;;;;;;18.58;10.73;;;;;;;1.19;98.42;99288.81;5014352;28;20030;-80
2021/01/25 01:06:23;;;;;;;17.77;10.05;;;;;;;1.16;99.54;99289.78;4991228;28;20093;-80
2021/01/25 01:08:50;;;;;;;20.75;10.18;;;;;;;1.29;99.21;99297.06;5000278;28;20113;-80
2021/01/25 01:11:18;;;;;;;18.13;9.20;;;;;;;1.29;99.18;99286.69;5000863;28;20058;-80
2021/01/25 01:13:46;;;;;;;16.88;9.00;;;;;;;1.26;98.89;99291.09;4995521;28;20088;-80
2021/01/25 01:16:14;;;;;;;18.65;9.82;;;;;;;1.52;98.29;99289.97;5000278;28;20037;-78
2021/01/25 01:18:45;;;;;;;17.35;9.55;;;;;;;1.24;99.54;99284.28;4985698;28;20042;-79
2021/01/25 01:21:13;;;;;;;18.33;10.02;;;;;;;1.28;99.40;99285.84;5022937;28;20050;-79
2021/01/25 01:23:40;;;;;;;19.48;11.38;;;;;;;1.52;99.08;99291.72;4997392;28;20094;-81
2021/01/25 01:26:08;;;;;;;21.67;11.85;;;;;;;1.62;99.01;99293.03;5018627;28;20064;-81
2021/01/25 01:28:36;;;;;;;21.55;11.38;;;;;;;1.35;98.88;99291.59;5015101;28;20096;-82
2021/01/25 01:31:03;;;;;;;22.08;12.40;;;;;;;1.55;98.62;99296.78;4970222;28;20539;-80
2021/01/25 01:33:31;;;;;;;22.90;12.13;;;;;;;1.38;98.23;99296.66;5000854;28;20145;-80
2021/01/25 01:35:58;;;;;;;24.88;13.43;;;;;;;1.40;98.89;99295.72;4991019;28;20034;-81
2021/01/25 01:38:26;;;;;;;25.15;14.10;;;;;;;1.29;98.77;99300.50;4983236;28;20041;-79
2021/01/25 01:40:57;;;;;;;27.02;13.90;;;;;;;1.21;99.41;99295.63;4974470;28;20105;-83
2021/01/25 01:43:25;;;;;;;23.20;13.30;;;;;;;1.35;98.05;99289.88;4975749;28;20652;-81
2021/01/25 01:45:53;;;;;;;25.98;14.57;;;;;;;1.22;98.38;99292.13;5007227;28;20113;-81
2021/01/25 01:48:21;;;;;;;26.80;15.07;;;;;;;1.42;98.31;99296.47;4986465;28;20057;-81
2021/01/25 01:50:49;;;;;;;26.17;14.13;;;;;;;1.53;97.54;99293.41;5013720;28;20050;-82
2021/01/25 01:53:16;;;;;;;27.80;15.40;;;;;;;1.55;97.27;99298.53;4971357;28;20050;-81
2021/01/25 01:55:44;;;;;;;29.65;16.65;;;;;;;1.39;97.29;99298.34;5011454;28;20105;-81
2021/01/25 01:58:11;;;;;;;23.88;14.95;;;;;;;1.37;97.14;99300.16;5004932;28;20102;-79
2021/01/25 02:00:38;;;;;;;26.67;15.95;;;;;;;1.34;97.44;99302.88;5035465;28;20042;-79
2021/01/25 02:03:05;;;;;;;28.30;15.82;;;;;;;1.38;96.64;99304.44;5008245;28;20110;-80
2021/01/25 02:05:33;;;;;;;29.00;15.75;;;;;;;1.48;97.23;99305.72;5001199;28;20115;-78
2021/01/25 02:08:00;;;;;;;32.83;17.48;;;;;;;1.39;97.10;99296.59;4993079;28;20034;-80
2021/01/25 02:10:30;;;;;;;29.67;16.38;;;;;;;1.40;97.73;99300.88;4986463;28;20117;-79
2021/01/25 02:12:59;;;;;;;29.48;17.40;;;;;;;1.55;96.39;99294.19;5011450;28;20048;-79
2021/01/25 02:15:27;;;;;;;33.22;17.40;;;;;;;1.46;96.34;99302.38;4988599;28;20077;-78
2021/01/25 02:17:55;;;;;;;29.00;16.60;;;;;;;1.23;95.89;99300.75;5026930;28;20093;-77
2021/01/25 02:20:44;;;;;;;29.52;16.52;;;;;;;0.98;97.16;99303.50;5000463;28;20053;-80
2021/01/25 02:23:23;;;;;;;32.92;18.27;;;;;;;0.95;97.47;99307.09;5020833;28;20106;-78
2021/01/25 02:26:17;;;;;;;31.88;18.08;;;;;;;0.87;97.45;99308.28;5018165;28;20085;-79
2021/01/25 02:28:44;;;;;;;39.20;19.13;;;;;;;0.93;97.48;99314.06;5011071;28;20032;-78
2021/01/25 02:31:12;;;;;;;35.33;18.00;;;;;;;1.01;97.60;99321.53;5018282;28;20050;-79
2021/01/25 02:33:44;;;;;;;33.42;18.63;;;;;;;1.25;97.08;99322.25;4999937;28;20110;-79
2021/01/25 02:36:13;;;;;;;34.72;19.13;;;;;;;1.19;96.93;99322.53;4998737;28;20046;-78
2021/01/25 02:38:43;;;;;;;32.60;17.05;;;;;;;1.23;96.40;99322.34;5011047;28;20038;-78
2021/01/25 02:41:12;;;;;;;30.48;17.63;;;;;;;0.99;96.66;99320.72;5028855;28;20206;-78
2021/01/25 02:43:40;;;;;;;34.92;18.80;;;;;;;0.82;96.98;99320.59;4996213;28;20034;-78
2021/01/25 02:46:09;;;;;;;34.50;19.77;;;;;;;0.70;97.42;99325.34;5007001;28;20066;-78
2021/01/25 02:48:37;;;;;;;37.15;19.88;;;;;;;0.60;98.33;99318.84;4989860;28;20042;-78
2021/01/25 02:51:05;;;;;;;37.00;20.67;;;;;;;0.33;98.58;99325.94;5022650;28;20057;-79
2021/01/25 02:53:32;;;;;;;40.00;20.98;;;;;;;0.33;99.19;99328.53;5005809;28;20046;-80
2021/01/25 02:56:00;;;;;;;38.67;20.15;;;;;;;0.62;99.52;99317.03;4993146;28;20034;-79
2021/01/25 02:58:27;;;;;;;37.70;20.52;;;;;;;0.71;98.13;99323.59;4989765;28;20062;-79
2021/01/25 03:00:56;;;;;;;38.55;20.88;;;;;;;0.70;98.21;99329.69;4998276;28;20074;-79
2021/01/25 03:03:23;;;;;;;39.30;20.95;;;;;;;0.71;97.88;99333.94;4992889;28;20062;-79
2021/01/25 03:05:51;;;;;;;37.65;20.25;;;;;;;0.79;97.74;99331.91;5004651;28;20046;-80
2021/01/25 03:08:18;;;;;;;39.40;20.63;;;;;;;0.80;97.61;99331.00;5006038;28;20122;-78
2021/01/25 03:10:47;;;;;;;33.15;18.70;;;;;;;0.85;97.51;99336.00;5016447;28;20074;-80
2021/01/25 03:13:15;;;;;;;37.88;21.33;;;;;;;0.71;97.15;99339.13;5003625;28;20111;-80
2021/01/25 03:15:43;;;;;;;32.17;19.38;;;;;;;0.80;97.52;99341.34;4994896;28;20118;-80
2021/01/25 03:18:10;;;;;;;41.78;22.00;;;;;;;0.41;97.55;99348.94;4991010;28;20070;-79
2021/01/25 03:20:38;;;;;;;36.35;20.05;;;;;;;0.40;97.11;99345.47;5007454;28;20042;-78
2021/01/25 03:23:05;;;;;;;30.60;18.00;;;;;;;0.38;96.62;99352.47;4994776;28;20096;-79
2021/01/25 03:25:32;;;;;;;33.63;19.27;;;;;;;0.59;96.55;99350.84;5007553;28;20038;-80
2021/01/25 03:27:59;;;;;;;31.08;16.35;;;;;;;0.59;96.15;99355.16;4998881;28;20058;-79
2021/01/25 03:30:26;;;;;;;26.38;14.38;;;;;;;0.44;94.99;99349.66;5002732;28;20019;-78
2021/01/25 03:32:53;;;;;;;26.58;14.60;;;;;;;0.65;95.17;99354.91;4993031;28;20106;-79
2021/01/25 03:35:20;;;;;;;29.30;16.38;;;;;;;0.61;94.69;99354.19;4988452;28;20050;-80
2021/01/25 03:37:47;;;;;;;31.75;16.52;;;;;;;0.41;94.99;99360.13;5008026;28;20050;-79
2021/01/25 03:40:15;;;;;;;31.27;15.32;;;;;;;0.50;95.30;99357.19;5005778;28;20050;-81
2021/01/25 03:42:42;;;;;;;29.67;15.80;;;;;;;0.66;95.37;99366.97;4991170;28;20116;-79
2021/01/25 03:45:12;;;;;;;32.40;16.35;;;;;;;0.78;94.92;99361.31;5007232;28;20030;-77
2021/01/25 03:47:40;;;;;;;28.60;16.23;;;;;;;1.01;94.34;99363.84;5013348;28;20105;-79
2021/01/25 03:50:08;;;;;;;30.77;17.40;;;;;;;0.68;93.99;99366.00;5000542;28;20060;-80
2021/01/25 03:52:36;;;;;;;29.42;15.75;;;;;;;0.59;94.88;99371.53;5005190;28;20047;-79
2021/01/25 03:55:03;;;;;;;24.45;14.95;;;;;;;0.80;93.75;99364.66;4983396;28;20046;-80
2021/01/25 03:57:30;;;;;;;23.95;13.80;;;;;;;0.94;92.83;99372.75;4987856;28;20042;-80
2021/01/25 03:59:57;;;;;;;26.15;14.98;;;;;;;0.79;92.69;99369.94;4998446;28;20038;-79
2021/01/25 04:02:25;;;;;;;23.95;12.75;;;;;;;0.73;93.15;99368.44;4983295;28;20182;-79
2021/01/25 04:04:53;;;;;;;28.30;14.02;;;;;;;1.01;92.70;99373.34;4986144;28;20056;-78
2021/01/25 04:07:20;;;;;;;24.40;13.75;;;;;;;0.78;93.18;99366.50;4987699;28;20137;-78
2021/01/25 04:09:47;;;;;;;23.65;13.45;;;;;;;1.01;93.11;99366.41;5001323;28;20066;-80
2021/01/25 04:12:14;;;;;;;24.95;13.60;;;;;;;0.97;93.35;99364.84;4982081;28;20053;-79
2021/01/25 04:14:41;;;;;;;20.42;12.73;;;;;;;1.00;93.12;99372.53;4983456;28;20136;-79
2021/01/25 04:17:08;;;;;;;26.95;15.50;;;;;;;0.99;93.17;99370.84;4990860;28;20070;-79
2021/01/25 04:19:36;;;;;;;32.70;15.00;;;;;;;0.93;93.45;99371.06;4989039;28;20042;-78
2021/01/25 04:22:03;;;;;;;30.83;17.35;;;;;;;0.72;93.66;99370.19;5007895;28;20048;-79
2021/01/25 04:24:30;;;;;;;31.38;16.77;;;;;;;0.68;94.13;99380.72;5020239;28;20046;-79
2021/01/25 04:26:58;;;;;;;27.27;16.85;;;;;;;0.65;94.71;99380.81;4988297;28;20323;-79
2021/01/25 04:29:25;;;;;;;34.90;18.67;;;;;;;0.73;94.47;99378.78;5006025;28;20109;-80
2021/01/25 04:31:53;;;;;;;35.50;18.73;;;;;;;0.74;93.60;99376.13;5002931;28;20050;-79
2021/01/25 04:34:20;;;;;;;34.33;18.05;;;;;;;0.81;93.94;99383.66;4989871;28;20050;-80
2021/01/25 04:36:47;;;;;;;32.63;17.65;;;;;;;0.80;94.58;99382.81;4984431;28;20058;-80
2021/01/25 04:39:15;;;;;;;31.48;17.23;;;;;;;0.92;93.82;99384.09;4984597;28;20088;-80
2021/01/25 04:41:43;;;;;;;34.38;15.93;;;;;;;0.88;93.63;99387.69;5006301;28;20050;-80
2021/01/25 04:44:10;;;;;;;32.90;18.17;;;;;;;0.85;93.68;99386.06;4986696;28;20145;-79
2021/01/25 04:46:38;;;;;;;34.08;17.33;;;;;;;0.89;93.69;99382.44;5000511;28;20038;-80
2021/01/25 04:49:06;;;;;;;35.92;18.15;;;;;;;0.68;94.34;99383.31;5009081;28;20042;-78
2021/01/25 04:51:34;;;;;;;32.50;17.65;;;;;;;0.80;94.33;99388.00;4968617;28;20066;-79
2021/01/25 04:54:01;;;;;;;30.70;16.33;;;;;;;0.84;94.92;99391.31;5006629;28;20118;-78
2021/01/25 04:56:29;;;;;;;32.20;18.58;;;;;;;0.92;94.79;99391.88;5012279;28;20193;-80
2021/01/25 04:58:56;;;;;;;27.55;16.45;;;;;;;0.98;94.33;99394.19;5009174;28;20140;-80
2021/01/25 05:01:24;;;;;;;31.75;16.98;;;;;;;0.55;95.19;99395.03;5008636;28;20060;-80
2021/01/25 05:03:51;;;;;;;28.77;16.52;;;;;;;0.46;95.38;99399.66;4981343;28;20045;-79
2021/01/25 05:06:19;;;;;;;30.77;17.00;;;;;;;0.57;96.45;99403.56;5011696;28;20018;-80
2021/01/25 05:08:47;;;;;;;37.05;18.25;;;;;;;0.68;96.05;99401.44;5004228;28;20069;-79
2021/01/25 05:11:16;;;;;;;34.67;17.25;;;;;;;0.85;95.35;99411.97;4984043;28;20110;-79
2021/01/25 05:13:45;;;;;;;33.78;18.50;;;;;;;0.92;94.86;99410.84;5004307;28;20081;-80
2021/01/25 05:16:22;;;;;;;31.55;17.85;;;;;;;1.15;94.17;99409.94;4974827;28;20038;-80
2021/01/25 05:18:57;;;;;;;32.55;17.50;;;;;;;1.18;93.86;99409.81;4992409;28;20061;-79
2021/01/25 05:21:36;;;;;;;28.30;16.10;;;;;;;1.20;94.28;99401.97;4984476;28;20122;-79
2021/01/25 05:24:05;;;;;;;32.28;17.50;;;;;;;1.19;93.97;99405.47;5005944;28;20469;-79
2021/01/25 05:26:40;;;;;;;35.30;17.95;;;;;;;0.94;94.33;99405.59;5001122;28;20054;-78
2021/01/25 05:29:07;;;;;;;36.20;18.80;;;;;;;1.00;93.89;99402.78;4987586;28;20094;-79
2021/01/25 05:31:35;;;;;;;29.67;17.63;;;;;;;1.13;94.34;99397.94;5003573;28;20035;-80
2021/01/25 05:34:03;;;;;;;36.47;20.05;;;;;;;0.97;94.37;99400.28;4998616;28;20073;-80
2021/01/25 05:36:31;;;;;;;31.20;18.80;;;;;;;1.05;93.82;99400.84;4995811;28;20106;-79
2021/01/25 05:39:03;;;;;;;36.05;20.27;;;;;;;1.02;94.26;99403.53;5012833;28;20038;-80
2021/01/25 05:41:34;;;;;;;37.30;20.00;;;;;;;0.97;94.12;99395.94;5013309;28;20707;-78
2021/01/25 05:44:13;;;;;;;36.55;20.05;;;;;;;0.85;94.39;99398.16;5006140;28;20045;-81
2021/01/25 05:46:41;;;;;;;35.70;20.02;;;;;;;0.85;95.10;99399.00;5008777;28;20053;-79
2021/01/25 05:49:09;;;;;;;43.17;21.33;;;;;;;0.92;95.16;99399.63;4968411;28;20069;-80
2021/01/25 05:51:39;;;;;;;42.90;23.55;;;;;;;0.64;96.26;99395.53;4983236;28;20049;-81
2021/01/25 05:54:06;;;;;;;43.08;23.30;;;;;;;0.63;97.42;99398.16;4996892;28;20066;-80
2021/01/25 05:56:34;;;;;;;42.75;22.58;;;;;;;0.74;97.21;99398.59;4974572;28;20066;-80
2021/01/25 05:59:02;;;;;;;52.90;23.83;;;;;;;0.92;96.69;99404.81;4983587;28;20046;-80
2021/01/25 06:01:30;;;;;;;42.13;23.42;;;;;;;0.94;96.07;99403.00;4989058;28;20046;-81
2021/01/25 06:03:59;;;;;;;44.13;24.45;;;;;;;1.13;95.92;99398.78;4976651;28;20066;-80
2021/01/25 06:06:33;;;;;;;52.60;24.42;;;;;;;1.12;95.60;99406.59;4980004;28;20038;-80
2021/01/25 06:09:30;;;;;;;43.90;22.70;;;;;;;1.15;95.30;99407.34;4998339;28;20088;-79
2021/01/25 06:12:04;;;;;;;42.78;23.13;;;;;;;1.24;95.03;99403.53;5005707;28;20038;-79
2021/01/25 06:14:55;;;;;;;42.33;22.65;;;;;;;1.34;93.93;99417.81;4976062;28;20097;-79
2021/01/25 06:17:24;;;;;;;48.05;24.17;;;;;;;1.28;94.04;99412.88;4999890;28;20038;-80
2021/01/25 06:19:51;;;;;;;51.67;22.90;;;;;;;1.24;94.97;99416.50;4981662;28;20115;-79
2021/01/25 06:22:19;;;;;;;39.95;23.00;;;;;;;1.16;94.48;99414.19;4972512;28;20046;-80
2021/01/25 06:24:46;;;;;;;44.47;25.13;;;;;;;1.22;95.06;99413.13;5006963;28;20664;-80
2021/01/25 06:27:14;;;;;;;45.33;25.30;;;;;;;1.19;94.61;99413.25;4978646;28;20059;-82
2021/01/25 06:29:43;;;;;;;51.65;26.95;;;;;;;1.29;94.02;99414.56;4968533;28;20184;-81
2021/01/25 06:32:13;;;;;;;44.10;22.55;;;;;;;1.29;93.80;99413.72;4992176;28;20146;-82
2021/01/25 06:34:40;;;;;;;47.92;25.05;;;;;;;1.20;94.05;99414.94;4988741;28;20070;-80
2021/01/25 06:37:09;;;;;;;44.67;24.90;;;;;;;1.29;94.22;99414.56;4992960;28;20050;-81
2021/01/25 06:39:44;;;;;;;42.53;24.70;;;;;;;1.35;93.52;99422.13;4988953;28;20026;-80
2021/01/25 06:42:16;;;;;;;45.75;24.95;;;;;;;1.41;93.06;99427.03;5010394;28;20061;-81
2021/01/25 06:44:49;;;;;;;43.75;23.67;;;;;;;1.39;93.07;99428.84;4994512;28;20072;-82
2021/01/25 06:47:17;;;;;;;45.45;24.50;;;;;;;1.36;93.32;99435.91;4994896;28;20061;-80
2021/01/25 06:49:45;;;;;;;49.17;25.27;;;;;;;1.40;92.95;99440.91;4984666;28;20142;-81
2021/01/25 06:52:13;;;;;;;46.58;25.30;;;;;;;1.25;93.61;99441.50;4986458;28;20084;-82
2021/01/25 06:54:44;;;;;;;46.90;25.52;;;;;;;1.08;94.33;99446.50;5002513;28;20129;-83
2021/01/25 06:57:25;;;;;;;49.75;25.52;;;;;;;1.03;94.70;99451.88;5007671;28;20347;-82
2021/01/25 06:59:52;;;;;;;46.72;24.40;;;;;;;1.15;94.90;99453.16;4971888;28;20050;-81
2021/01/25 07:02:20;;;;;;;55.75;27.02;;;;;;;1.44;93.78;99452.84;4980938;28;20081;-83
2021/01/25 07:04:50;;;;;;;44.05;25.27;;;;;;;1.70;92.48;99458.72;4966994;28;20045;-81
2021/01/25 07:07:30;;;;;;;50.10;25.20;;;;;;;1.73;92.51;99461.19;5013150;28;20085;-81
2021/01/25 07:09:57;;;;;;;53.60;25.30;;;;;;;1.63;92.80;99462.47;5000442;28;20034;-81
2021/01/25 07:12:25;;;;;;;49.28;26.25;;;;;;;1.38;93.36;99475.56;4974420;28;20077;-81
2021/01/25 07:14:53;;;;;;;54.70;26.40;;;;;;;1.12;93.92;99467.06;4978923;28;20043;-80
2021/01/25 07:17:20;;;;;;;48.10;25.45;;;;;;;1.07;95.04;99469.00;5006451;28;20049;-80
2021/01/25 07:19:47;;;;;;;54.55;26.98;;;;;;;0.98;95.38;99464.16;5001291;28;20049;-80
2021/01/25 07:22:15;;;;;;;58.70;28.05;;;;;;;0.89;95.96;99473.13;4979816;28;20046;-81
2021/01/25 07:24:42;;;;;;;57.85;28.23;;;;;;;1.16;94.98;99478.16;5004663;28;20418;-80
2021/01/25 07:27:09;;;;;;;57.45;28.73;;;;;;;1.33;95.27;99477.50;4981352;28;20115;-82
2021/01/25 07:29:36;;;;;;;58.20;28.42;;;;;;;1.32;94.36;99479.25;4998403;28;20058;-80
2021/01/25 07:32:03;;;;;;;48.42;24.63;;;;;;;1.68;93.41;99482.13;5006148;28;20026;-82
2021/01/25 07:34:31;;;;;;;50.80;25.00;;;;;;;1.65;91.84;99489.19;4991638;28;20055;-81
2021/01/25 07:36:58;;;;;;;42.97;23.58;;;;;;;1.47;91.52;99495.97;5013645;28;20034;-81
2021/01/25 07:39:26;;;;;;;48.53;24.65;;;;;;;1.43;92.57;99489.19;5007413;28;20043;-82
2021/01/25 07:41:53;;;;;;;44.22;24.05;;;;;;;1.67;91.99;99495.19;4990129;28;20076;-80
2021/01/25 07:44:22;;;;;;;47.78;23.40;;;;;;;1.73;91.75;99498.34;4979059;28;20106;-83
2021/01/25 07:47:02;;;;;;;47.55;26.50;;;;;;;1.59;93.20;99494.63;5020217;28;20046;-80
2021/01/25 07:49:30;;;;;;;47.90;26.77;;;;;;;1.54;92.22;99504.34;5007295;28;20070;-83
2021/01/25 07:51:58;;;;;;;46.63;23.85;;;;;;;1.41;92.73;99498.81;4995764;28;20030;-79
2021/01/25 07:54:29;;;;;;;50.90;25.75;;;;;;;1.41;92.93;99507.44;4992680;28;20129;-80
2021/01/25 07:56:59;;;;;;;46.20;24.58;;;;;;;1.34;92.49;99505.13;5002067;28;20056;-79
2021/01/25 07:59:36;;;;;;;50.33;24.52;;;;;;;1.51;92.25;99510.50;5056096;23;20058;-80
2021/01/25 08:02:07;;;;;;;43.50;23.77;;;;;;;1.59;92.12;99516.22;5004448;28;20047;-80
2021/01/25 08:04:53;;;;;;;43.20;23.02;;;;;;;1.44;91.75;99512.50;4992580;28;21213;-80
2021/01/25 08:07:28;;;;;;;43.28;23.60;;;;;;;1.34;91.84;99511.16;4988780;28;20054;-82
2021/01/25 08:09:55;;;;;;;41.80;22.50;;;;;;;1.45;91.68;99514.19;4982062;28;20045;-79
2021/01/25 08:12:24;;;;;;;46.03;22.90;;;;;;;1.46;91.58;99520.22;4984142;28;20717;-81
2021/01/25 08:14:59;;;;;;;41.22;22.55;;;;;;;1.51;91.46;99513.94;5001193;28;20046;-80
2021/01/25 08:17:33;;;;;;;40.33;22.38;;;;;;;1.12;91.34;99516.31;4995753;28;20204;-81
2021/01/25 08:20:09;;;;;;;41.95;22.25;;;;;;;1.43;91.28;99517.72;5013753;28;20057;-82
2021/01/25 08:22:48;;;;;;;37.03;21.33;;;;;;;1.66;90.66;99511.63;5005725;28;20046;-80
2021/01/25 08:25:18;;;;;;;48.00;23.08;;;;;;;1.64;89.95;99519.47;4997935;28;20061;-81
2021/01/25 08:27:57;;;;;;;35.63;20.08;;;;;;;1.41;89.96;99533.34;4985631;28;20065;-80
2021/01/25 08:30:30;;;;;;;40.85;23.25;;;;;;;1.26;91.18;99526.16;4997417;28;20179;-82
2021/01/25 08:33:01;;;;;;;50.20;21.42;;;;;;;1.07;91.86;99538.97;4997772;28;20092;-80
2021/01/25 08:35:33;;;;;;;45.08;23.63;;;;;;;1.28;93.15;99539.91;5003467;28;20405;-81
2021/01/25 08:38:10;;;;;;;44.78;21.75;;;;;;;1.59;90.54;99543.91;4983223;28;20038;-82
2021/01/25 08:40:38;;;;;;;39.70;20.73;;;;;;;1.40;90.98;99541.22;4998033;28;20075;-81
2021/01/25 08:43:17;;;;;;;39.47;20.63;;;;;;;1.47;91.25;99553.84;4966771;28;20081;-81
2021/01/25 08:45:44;;;;;;;45.80;21.10;;;;;;;1.52;91.00;99551.09;4989288;28;20112;-80
2021/01/25 08:48:12;;;;;;;41.65;20.88;;;;;;;1.64;90.57;99554.97;4989893;28;20067;-78
2021/01/25 08:50:39;;;;;;;45.13;22.75;;;;;;;1.60;90.11;99551.63;4973072;28;20050;-79
2021/01/25 08:53:16;;;;;;;39.13;21.45;;;;;;;1.60;89.77;99550.78;4996424;28;20073;-80
2021/01/25 08:55:47;;;;;;;41.40;23.92;;;;;;;1.31;90.65;99557.13;4998679;28;20393;-78
2021/01/25 08:58:16;;;;;;;41.00;22.25;;;;;;;1.58;91.00;99553.47;4979470;28;20058;-79
2021/01/25 09:00:48;;;;;;;37.53;20.73;;;;;;;1.68;90.19;99553.94;4970251;28;20116;-78
2021/01/25 09:03:16;;;;;;;42.15;21.52;;;;;;;1.42;90.81;99554.94;4991560;28;20608;-77
2021/01/25 09:05:43;;;;;;;46.00;23.08;;;;;;;1.46;91.08;99551.34;4996592;28;20090;-77
2021/01/25 09:08:11;;;;;;;40.08;21.08;;;;;;;1.44;90.45;99550.53;5012149;28;20046;-79
2021/01/25 09:10:39;;;;;;;40.65;20.67;;;;;;;1.61;89.80;99552.47;4980327;28;22213;-79
2021/01/25 09:13:06;;;;;;;41.53;21.08;;;;;;;1.64;89.89;99563.59;4966455;28;20053;-79
2021/01/25 09:15:33;;;;;;;43.05;21.88;;;;;;;1.52;89.93;99567.47;4977819;28;20082;-79
2021/01/25 09:18:00;;;;;;;39.42;21.25;;;;;;;1.56;89.66;99567.38;4969061;28;20516;-78
2021/01/25 09:20:28;;;;;;;37.00;20.90;;;;;;;1.73;88.69;99576.19;4990672;28;20049;-79
2021/01/25 09:22:55;;;;;;;42.10;21.38;;;;;;;1.72;88.25;99574.50;4953044;28;20051;-76
2021/01/25 09:25:22;;;;;;;38.13;22.15;;;;;;;1.97;88.74;99582.13;4966525;28;20081;-77
2021/01/25 09:27:50;;;;;;;44.80;22.38;;;;;;;2.26;90.80;99586.16;4967213;28;20051;-79
2021/01/25 09:30:18;;;;;;;36.60;20.33;;;;;;;2.46;89.97;99582.72;4990552;28;20385;-76
2021/01/25 09:32:45;;;;;;;34.53;19.45;;;;;;;2.37;86.71;99592.66;4994902;28;20060;-77
2021/01/25 09:35:15;;;;;;;38.22;20.45;;;;;;;2.23;86.36;99598.41;4964876;28;20090;-78
2021/01/25 09:37:44;;;;;;;44.92;22.75;;;;;;;1.94;87.51;99597.00;4970441;28;20041;-77
2021/01/25 09:40:12;;;;;;;39.05;22.00;;;;;;;1.89;87.57;99602.38;4962688;28;20054;-78
2021/01/25 09:42:39;;;;;;;38.42;21.63;;;;;;;1.91;88.26;99594.53;4938006;28;20472;-79
2021/01/25 09:45:11;;;;;;;39.88;21.65;;;;;;;2.10;87.13;99600.66;4977741;28;20062;-79
2021/01/25 09:47:39;;;;;;;38.72;22.02;;;;;;;2.18;86.88;99608.16;4973228;28;20065;-82
2021/01/25 09:50:13;;;;;;;44.22;22.08;;;;;;;2.42;86.90;99608.88;4976578;28;20161;-79
2021/01/25 09:52:43;;;;;;;37.92;19.35;;;;;;;2.61;85.86;99611.53;4971257;28;20069;-80
2021/01/25 09:55:11;;;;;;;35.08;20.05;;;;;;;2.81;84.93;99616.75;4954323;28;20113;-80
2021/01/25 09:57:42;;;;;;;33.40;19.92;;;;;;;2.84;83.98;99616.63;4971197;28;20038;-78
2021/01/25 10:00:11;;;;;;;39.78;18.65;;;;;;;2.68;83.82;99616.44;4970258;28;20050;-77
2021/01/25 10:02:38;;;;;;;39.33;19.77;;;;;;;2.68;83.83;99613.81;4974609;28;20144;-77
2021/01/25 10:05:06;;;;;;;33.45;18.50;;;;;;;2.36;85.41;99612.59;4980105;28;20049;-78
2021/01/25 10:07:35;;;;;;;34.47;18.38;;;;;;;2.44;84.35;99618.31;4975492;28;20070;-80
2021/01/25 10:10:07;;;;;;;34.58;17.38;;;;;;;2.40;84.24;99618.50;4978739;28;20054;-79
2021/01/25 10:12:35;;;;;;;36.97;17.23;;;;;;;2.23;84.95;99626.97;5011550;28;20047;-77
2021/01/25 10:15:04;;;;;;;40.13;18.20;;;;;;;2.42;84.59;99616.69;4992198;28;20110;-77
2021/01/25 10:17:31;;;;;;;33.45;17.90;;;;;;;2.52;84.94;99623.16;4951503;28;20042;-78
2021/01/25 10:19:59;;;;;;;33.78;17.10;;;;;;;2.46;84.37;99626.03;4971067;28;20073;-77
2021/01/25 10:22:26;;;;;;;32.65;18.42;;;;;;;2.59;83.69;99623.78;4947588;28;20038;-77
2021/01/25 10:24:53;;;;;;;37.50;18.38;;;;;;;2.68;84.02;99628.56;4969235;28;20444;-77
2021/01/25 10:27:20;;;;;;;34.38;17.92;;;;;;;2.64;84.07;99627.00;4967006;28;20062;-78
2021/01/25 10:29:48;;;;;;;73.53;37.08;;;;;;;2.53;84.07;99630.06;4988243;28;20659;-79
2021/01/25 10:32:16;;;;;;;34.50;18.63;;;;;;;2.76;83.68;99629.94;4966837;28;20069;-78
2021/01/25 10:34:44;;;;;;;38.88;16.75;;;;;;;2.76;84.18;99634.31;4973408;28;20113;-78
2021/01/25 10:37:11;;;;;;;30.35;16.85;;;;;;;2.53;83.85;99638.72;4962872;28;20070;-77
2021/01/25 10:39:38;;;;;;;43.72;18.80;;;;;;;2.43;85.29;99637.41;4946179;28;20053;-78
2021/01/25 10:42:05;;;;;;;33.70;17.45;;;;;;;2.45;84.57;99630.38;4967159;28;20050;-77
2021/01/25 10:44:32;;;;;;;35.08;17.65;;;;;;;2.51;84.11;99635.31;4956344;28;20137;-78
2021/01/25 10:46:59;;;;;;;35.30;17.05;;;;;;;2.66;84.36;99638.22;4975399;28;20047;-78
2021/01/25 10:49:26;;;;;;;30.65;17.80;;;;;;;2.68;84.14;99639.81;4989224;28;20050;-78
2021/01/25 10:51:54;;;;;;;33.38;16.85;;;;;;;2.89;83.01;99639.81;4989515;28;20337;-78
2021/01/25 10:54:25;;;;;;;34.53;16.98;;;;;;;2.89;83.22;99635.47;4963240;28;20441;-78
2021/01/25 10:56:52;;;;;;;34.08;17.00;;;;;;;3.11;82.08;99642.31;4963824;28;20138;-78
2021/01/25 10:59:19;;;;;;;27.75;15.75;;;;;;;2.65;82.21;99642.53;4964650;28;20457;-78
2021/01/25 11:01:48;;;;;;;30.30;14.88;;;;;;;2.36;84.60;99648.09;4969957;28;20734;-78
2021/01/25 11:04:16;;;;;;;29.45;15.88;;;;;;;2.66;82.92;99646.84;4955020;28;20061;-78
2021/01/25 11:06:47;;;;;;;24.38;13.45;;;;;;;2.63;82.52;99652.16;4974117;28;20121;-80
2021/01/25 11:09:15;;;;;;;30.08;14.00;;;;;;;2.57;82.65;99651.56;4992810;28;20516;-78
2021/01/25 11:11:44;;;;;;;30.48;16.02;;;;;;;2.77;81.83;99646.38;4971560;28;20135;-79
2021/01/25 11:14:11;;;;;;;22.00;13.15;;;;;;;2.54;82.23;99655.97;4973207;28;20061;-80
2021/01/25 11:16:38;;;;;;;25.10;14.48;;;;;;;2.60;82.57;99661.81;4988144;28;20528;-78
2021/01/25 11:19:05;;;;;;;29.15;15.02;;;;;;;2.59;82.31;99660.97;4967205;28;20051;-77
2021/01/25 11:21:32;;;;;;;27.67;14.52;;;;;;;2.59;82.80;99660.16;4975007;28;20050;-77
2021/01/25 11:23:59;;;;;;;25.88;14.52;;;;;;;2.45;82.89;99660.72;4996808;28;20062;-78
2021/01/25 11:26:28;;;;;;;32.47;15.50;;;;;;;2.72;82.48;99661.31;4972837;28;20062;-76
2021/01/25 11:28:55;;;;;;;31.02;14.20;;;;;;;2.91;81.48;99663.97;4965593;28;20174;-76
2021/01/25 11:31:22;;;;;;;23.98;13.52;;;;;;;2.87;81.14;99668.47;4970347;28;20132;-79
2021/01/25 11:33:49;;;;;;;23.90;13.05;;;;;;;2.88;81.14;99666.69;4969281;28;20061;-78